Time;durP1;ratioP1;P1;durP2;ratioP2;P2;SDS_P1;SDS_P2;PMS_P1;PMS_P2;Temp;Humidity;BMP_temperature;BMP_pressure;BME280_temperature;BME280_humidity;BME280_pressure;Samples;Min_cycle;Max_cycle;Signal;HPM_P1;HPM_P2
2021/12/20 00:00:18;;;;;;;12.65;2.22;;;6.20;99.90;;;;;;5036723;28;20473;-76
2021/12/20 00:02:49;;;;;;;16.13;2.75;;;6.20;99.90;;;;;;5070723;28;20053;-75
2021/12/20 00:05:15;;;;;;;14.60;2.67;;;6.10;99.90;;;;;;5070845;28;20067;-76
2021/12/20 00:07:41;;;;;;;17.90;3.30;;;6.00;99.90;;;;;;5051748;28;20440;-76
2021/12/20 00:10:07;;;;;;;17.60;3.40;;;6.00;99.90;;;;;;5069629;28;20643;-76
2021/12/20 00:12:34;;;;;;;20.03;3.67;;;5.90;99.90;;;;;;5052102;28;20404;-75
2021/12/20 00:15:00;;;;;;;18.50;3.38;;;5.90;99.90;;;;;;5051276;28;20412;-75
2021/12/20 00:17:25;;;;;;;21.25;3.72;;;5.80;99.90;;;;;;5052229;28;20766;-75
2021/12/20 00:19:51;;;;;;;21.63;3.83;;;5.70;99.90;;;;;;5051974;28;20404;-76
2021/12/20 00:22:17;;;;;;;25.47;4.33;;;5.80;99.90;;;;;;5035192;28;20447;-76
2021/12/20 00:24:42;;;;;;;18.88;3.30;;;5.70;99.90;;;;;;5067328;28;20044;-76
2021/12/20 00:27:10;;;;;;;17.83;2.50;;;5.70;99.90;;;;;;5073118;28;20082;-76
2021/12/20 00:29:36;;;;;;;18.08;2.10;;;5.70;99.90;;;;;;5072765;28;20047;-76
2021/12/20 00:32:03;;;;;;;23.77;3.08;;;5.60;99.90;;;;;;5072859;28;20502;-75
2021/12/20 00:34:29;;;;;;;19.38;2.83;;;5.70;99.90;;;;;;5072749;28;20624;-75
2021/12/20 00:37:03;;;;;;;17.25;2.65;;;5.60;99.90;;;;;;5073035;28;20044;-76
2021/12/20 00:42:14;;;;;;;21.25;3.35;;;5.60;99.90;;;;;;5072852;28;20437;-76
2021/12/20 00:44:39;;;;;;;19.63;2.60;;;5.60;99.90;;;;;;5072952;28;20458;-75
2021/12/20 00:47:05;;;;;;;;;;;5.50;99.90;;;;;;5091171;28;20051;-76
2021/12/20 00:49:30;;;;;;;;;;;5.60;99.90;;;;;;5073512;28;19920;-75
2021/12/20 00:51:56;;;;;;;;;;;5.50;99.90;;;;;;5071861;28;19920;-76
2021/12/20 00:54:21;;;;;;;;;;;5.50;99.90;;;;;;5072841;28;19998;-76
2021/12/20 00:56:48;;;;;;;;;;;5.40;99.90;;;;;;5091145;28;20016;-76
2021/12/20 00:59:14;;;;;;;;;;;5.40;99.90;;;;;;5072830;28;19930;-76
2021/12/20 01:01:40;;;;;;;;;;;5.30;99.90;;;;;;5072810;28;19920;-75
2021/12/20 01:04:05;;;;;;;;;;;5.30;99.90;;;;;;5072916;28;19927;-76
2021/12/20 01:06:31;;;;;;;;;;;5.30;99.90;;;;;;5072576;28;19920;-75
2021/12/20 01:08:56;;;;;;;;;;;5.20;99.90;;;;;;5072292;28;19927;-76
2021/12/20 01:11:25;;;;;;;21.60;3.35;;;5.10;99.90;;;;;;5090638;28;20469;-76
2021/12/20 01:13:53;;;;;;;22.33;4.40;;;5.00;99.90;;;;;;5072099;28;20138;-76
2021/12/20 01:16:28;;;;;;;16.05;2.83;;;5.00;99.90;;;;;;5072410;28;20052;-76
2021/12/20 01:18:54;;;;;;;19.33;3.25;;;4.90;99.90;;;;;;5071960;28;20055;-76
2021/12/20 01:21:19;;;;;;;23.02;3.50;;;4.90;99.90;;;;;;5072082;28;20391;-76
2021/12/20 01:23:45;;;;;;;22.80;3.35;;;4.80;99.90;;;;;;5064632;28;20044;-76
2021/12/20 01:26:11;;;;;;;;;;;4.80;99.90;;;;;;5052490;28;20044;-76
2021/12/20 01:28:37;;;;;;;16.15;3.38;;;4.80;99.90;;;;;;5069531;28;20722;-76
2021/12/20 01:31:02;;;;;;;22.27;4.35;;;4.70;99.90;;;;;;5067828;28;20484;-76
2021/12/20 01:33:28;;;;;;;21.27;4.07;;;4.60;99.90;;;;;;5049973;28;20905;-75
2021/12/20 01:35:56;;;;;;;22.80;3.77;;;4.60;99.90;;;;;;5049401;28;20404;-76
2021/12/20 01:38:22;;;;;;;21.92;3.90;;;4.50;99.90;;;;;;5067424;28;20439;-76
2021/12/20 01:40:48;;;;;;;25.45;3.67;;;4.50;99.90;;;;;;5049549;28;20445;-76
2021/12/20 01:43:16;;;;;;;23.50;4.10;;;4.40;99.90;;;;;;5049677;28;20411;-76
2021/12/20 01:45:42;;;;;;;18.95;4.13;;;4.40;99.90;;;;;;5049021;28;20404;-76
2021/12/20 01:48:11;;;;;;;25.08;4.20;;;4.30;99.90;;;;;;5049254;28;20955;-76
2021/12/20 01:50:46;;;;;;;22.83;3.88;;;4.30;99.90;;;;;;5049669;28;20422;-75
2021/12/20 01:53:15;;;;;;;30.77;4.87;;;4.30;99.90;;;;;;5049093;28;20464;-75
2021/12/20 01:55:40;;;;;;;23.30;3.22;;;4.20;99.90;;;;;;5051644;28;20374;-75
2021/12/20 01:58:06;;;;;;;18.52;3.10;;;4.20;99.90;;;;;;5069144;28;20132;-75
2021/12/20 02:00:34;;;;;;;26.90;3.17;;;4.20;99.90;;;;;;5069448;28;20032;-75
2021/12/20 02:03:02;;;;;;;17.30;3.05;;;4.10;99.90;;;;;;5069378;28;20124;-76
2021/12/20 02:08:23;;;;;;;16.05;2.90;;;4.00;99.90;;;;;;5050906;28;20044;-75
2021/12/20 02:10:49;;;;;;;;;;;4.00;99.90;;;;;;5069740;28;20048;-76
2021/12/20 02:13:16;;;;;;;;;;;4.00;99.90;;;;;;5052230;28;20339;-76
2021/12/20 02:15:42;;;;;;;;;;;4.00;99.90;;;;;;5051678;28;20397;-76
2021/12/20 02:18:08;;;;;;;;;;;3.90;99.90;;;;;;5051769;28;19928;-76
2021/12/20 02:20:34;;;;;;;;;;;3.90;99.90;;;;;;5051493;28;19928;-76
2021/12/20 02:23:00;;;;;;;;;;;3.90;99.90;;;;;;5040520;28;19995;-76
2021/12/20 02:25:28;;;;;;;16.60;2.85;;;3.80;99.90;;;;;;5083338;28;19999;-76
2021/12/20 02:27:54;;;;;;;24.35;2.83;;;3.80;99.90;;;;;;5059909;28;20044;-76
2021/12/20 02:38:40;;;;;;;14.98;2.65;;;3.70;99.90;;;;;;5051035;28;20090;-76
2021/12/20 02:41:24;;;;;;;18.20;2.17;;;3.60;99.90;;;;;;5034274;28;20044;-76
2021/12/20 02:43:56;;;;;;;12.93;2.33;;;3.60;99.90;;;;;;5088646;28;20518;-76
2021/12/20 02:48:55;;;;;;;21.35;2.78;;;3.60;99.90;;;;;;5088673;28;20128;-76
2021/12/20 02:51:23;;;;;;;14.65;2.20;;;3.50;99.90;;;;;;5071140;28;20047;-76
2021/12/20 02:53:53;;;;;;;11.13;2.13;;;3.40;99.90;;;;;;5070983;28;20053;-76
2021/12/20 02:56:19;;;;;;;18.20;2.78;;;3.40;99.90;;;;;;5071440;28;20051;-76
2021/12/20 02:58:45;;;;;;;17.42;2.67;;;3.40;99.90;;;;;;5087681;28;20051;-76
2021/12/20 03:01:10;;;;;;;23.88;4.65;;;3.40;99.90;;;;;;5050832;28;20052;-76
2021/12/20 03:03:36;;;;;;;14.50;3.20;;;3.40;99.90;;;;;;5050768;28;20072;-76
2021/12/20 03:06:09;;;;;;;24.60;4.13;;;3.30;99.90;;;;;;5049600;28;20423;-76
2021/12/20 03:08:38;;;;;;;18.30;3.25;;;3.30;99.90;;;;;;5050148;28;20098;-76
2021/12/20 03:11:04;;;;;;;21.92;2.72;;;3.20;99.90;;;;;;5051182;28;20033;-76
2021/12/20 03:13:30;;;;;;;20.25;2.85;;;3.20;99.90;;;;;;5050936;28;20127;-76
2021/12/20 03:15:55;;;;;;;24.27;3.65;;;3.20;99.90;;;;;;5037820;28;20127;-76
2021/12/20 03:18:21;;;;;;;18.38;3.03;;;3.10;99.90;;;;;;5054548;28;20487;-76
2021/12/20 03:20:47;;;;;;;14.90;2.10;;;3.10;99.90;;;;;;5072201;28;20059;-76
2021/12/20 03:23:12;;;;;;;13.10;2.10;;;3.10;99.90;;;;;;5054122;28;20051;-76
2021/12/20 03:25:38;;;;;;;;;;;3.10;99.90;;;;;;5054804;28;20040;-76
2021/12/20 03:28:03;;;;;;;;;;;3.10;99.90;;;;;;5054546;28;20375;-76
2021/12/20 03:30:29;;;;;;;15.70;2.45;;;3.00;99.90;;;;;;5054061;28;19921;-76
2021/12/20 03:32:54;;;;;;;17.00;2.80;;;3.00;99.90;;;;;;5055760;28;20048;-76
2021/12/20 03:35:20;;;;;;;25.45;3.63;;;3.00;99.90;;;;;;5074243;28;20044;-76
2021/12/20 03:37:46;;;;;;;12.93;3.00;;;3.00;99.90;;;;;;5073694;28;20040;-76
2021/12/20 03:40:12;;;;;;;16.30;2.38;;;3.00;99.90;;;;;;5074534;28;20067;-76
2021/12/20 03:42:42;;;;;;;14.18;2.78;;;3.00;99.90;;;;;;5073735;28;20048;-76
2021/12/20 03:45:08;;;;;;;21.35;4.15;;;2.90;99.90;;;;;;5072590;28;20398;-76
2021/12/20 03:47:34;;;;;;;17.23;3.73;;;2.90;99.90;;;;;;5072639;28;20549;-76
2021/12/20 03:50:00;;;;;;;20.40;3.67;;;2.90;99.90;;;;;;5072345;28;20500;-76
2021/12/20 03:52:25;;;;;;;;;;;2.80;99.90;;;;;;5074100;28;20063;-76
2021/12/20 03:54:51;;;;;;;;;;;2.80;99.90;;;;;;5074288;28;19920;-76
2021/12/20 03:57:16;;;;;;;13.93;1.95;;;2.80;99.90;;;;;;5057062;28;19931;-75
2021/12/20 03:59:42;;;;;;;25.77;4.97;;;2.70;99.90;;;;;;5055577;28;20406;-76
2021/12/20 04:02:08;;;;;;;31.33;4.97;;;2.70;99.90;;;;;;5072321;28;20405;-76
2021/12/20 04:04:34;;;;;;;20.90;3.92;;;2.70;99.90;;;;;;5072422;28;20410;-76
2021/12/20 04:06:59;;;;;;;24.65;4.20;;;2.70;99.90;;;;;;5071796;28;20441;-76
2021/12/20 04:09:25;;;;;;;20.02;3.40;;;2.70;99.90;;;;;;5073662;28;20040;-76
2021/12/20 04:11:50;;;;;;;17.20;2.72;;;2.60;99.90;;;;;;5073390;28;20040;-76
2021/12/20 04:14:16;;;;;;;19.90;2.53;;;2.60;99.90;;;;;;5073618;28;20076;-76
2021/12/20 04:16:42;;;;;;;21.40;3.35;;;2.60;99.90;;;;;;5056432;28;20387;-76
2021/12/20 04:19:07;;;;;;;20.63;2.35;;;2.60;99.90;;;;;;5073273;28;20056;-76
2021/12/20 04:21:33;;;;;;;10.93;2.05;;;2.60;99.90;;;;;;5073357;28;20105;-76
2021/12/20 04:23:58;;;;;;;18.83;3.22;;;2.60;99.90;;;;;;5073228;28;20509;-76
2021/12/20 04:26:24;;;;;;;18.20;2.60;;;2.50;99.90;;;;;;5090992;28;20127;-76
2021/12/20 04:28:50;;;;;;;20.75;4.15;;;2.50;99.90;;;;;;5071720;28;20788;-76
2021/12/20 04:31:16;;;;;;;19.92;3.60;;;2.50;99.90;;;;;;5071604;28;20410;-76
2021/12/20 04:33:41;;;;;;;17.60;3.73;;;2.50;99.90;;;;;;5063473;28;20909;-76
2021/12/20 04:36:07;;;;;;;21.52;3.75;;;2.40;99.90;;;;;;5052019;28;20516;-76
2021/12/20 04:38:33;;;;;;;18.77;3.80;;;2.40;99.90;;;;;;5051513;28;20427;-76
2021/12/20 04:41:00;;;;;;;23.60;2.97;;;2.40;99.90;;;;;;5053083;28;20124;-76
2021/12/20 04:43:25;;;;;;;;;;;2.40;99.90;;;;;;5053209;28;20403;-76
2021/12/20 04:45:51;;;;;;;14.80;2.70;;;2.40;99.90;;;;;;5052821;28;19920;-76
2021/12/20 04:48:17;;;;;;;21.30;2.75;;;2.40;99.90;;;;;;5070919;28;20552;-75
2021/12/20 04:50:43;;;;;;;16.98;2.55;;;2.30;99.90;;;;;;5052719;28;20047;-76
2021/12/20 04:53:08;;;;;;;;;;;2.30;99.90;;;;;;5053283;28;20049;-76
2021/12/20 04:55:34;;;;;;;15.60;1.88;;;2.30;99.90;;;;;;5070472;28;19979;-76
2021/12/20 04:58:02;;;;;;;17.48;2.67;;;2.30;99.90;;;;;;5052092;28;20072;-76
2021/12/20 05:00:29;;;;;;;19.38;3.13;;;2.20;99.90;;;;;;5052444;28;20036;-76
2021/12/20 05:02:56;;;;;;;20.02;3.03;;;2.20;99.90;;;;;;5070300;28;20055;-76
2021/12/20 05:05:22;;;;;;;17.17;2.95;;;2.20;99.90;;;;;;5052392;28;20067;-76
2021/12/20 05:07:49;;;;;;;17.25;3.03;;;2.20;99.90;;;;;;5051936;28;20052;-76
2021/12/20 05:10:25;;;;;;;15.13;2.63;;;2.20;99.90;;;;;;5051969;28;20117;-76
2021/12/20 05:12:53;;;;;;;23.80;3.20;;;2.20;99.90;;;;;;5052091;28;20048;-76
2021/12/20 05:15:19;;;;;;;23.33;2.80;;;2.10;99.90;;;;;;5052512;28;20052;-76
2021/12/20 05:17:45;;;;;;;16.23;2.33;;;2.10;99.90;;;;;;5052203;28;20509;-76
2021/12/20 05:20:11;;;;;;;16.25;2.58;;;2.10;99.90;;;;;;5052190;28;20040;-76
2021/12/20 05:22:36;;;;;;;18.92;2.50;;;2.10;99.90;;;;;;5051916;28;20518;-75
2021/12/20 05:25:03;;;;;;;16.40;2.83;;;2.10;99.90;;;;;;5051896;28;20127;-76
2021/12/20 05:27:28;;;;;;;27.38;3.30;;;2.10;99.90;;;;;;5052017;28;20093;-76
2021/12/20 05:29:54;;;;;;;21.30;3.88;;;2.00;99.90;;;;;;5068422;28;20412;-76
2021/12/20 05:32:20;;;;;;;21.27;3.58;;;2.00;99.90;;;;;;5069800;28;20392;-76
2021/12/20 05:34:45;;;;;;;17.85;3.40;;;2.00;99.90;;;;;;5086942;28;20545;-76
2021/12/20 05:37:13;;;;;;;15.52;2.92;;;2.00;99.90;;;;;;5071614;28;20142;-76
2021/12/20 05:39:40;;;;;;;19.70;3.33;;;2.00;99.90;;;;;;5089497;28;20059;-76
2021/12/20 05:42:06;;;;;;;17.90;3.05;;;2.00;99.90;;;;;;5071452;28;20490;-76
2021/12/20 05:44:31;;;;;;;17.33;3.08;;;2.00;99.90;;;;;;5071994;28;20410;-76
2021/12/20 05:46:57;;;;;;;16.92;4.35;;;1.90;99.90;;;;;;5089336;28;20051;-76
2021/12/20 05:49:23;;;;;;;20.85;3.50;;;1.90;99.90;;;;;;5071522;28;20044;-76
2021/12/20 05:51:48;;;;;;;21.60;3.15;;;1.90;99.90;;;;;;5089809;28;20132;-75
2021/12/20 05:54:14;;;;;;;17.10;3.22;;;1.90;99.90;;;;;;5089919;28;20101;-76
2021/12/20 05:56:40;;;;;;;21.52;3.88;;;1.90;99.90;;;;;;5089255;28;20078;-76
2021/12/20 05:59:05;;;;;;;;;;;1.80;99.90;;;;;;5055186;28;20050;-76
2021/12/20 06:01:31;;;;;;;;;;;1.80;99.90;;;;;;5055598;28;19926;-76
2021/12/20 06:03:57;;;;;;;;;;;1.80;99.90;;;;;;5071745;28;19927;-76
2021/12/20 06:06:22;;;;;;;;;;;1.80;99.90;;;;;;5068682;28;20317;-76
2021/12/20 06:08:48;;;;;;;;;;;1.80;99.90;;;;;;5068100;28;19955;-76
2021/12/20 06:11:13;;;;;;;;;;;1.70;99.90;;;;;;5068669;28;19946;-76
2021/12/20 06:13:39;;;;;;;19.42;3.20;;;1.80;99.90;;;;;;5067814;28;19966;-76
2021/12/20 06:16:05;;;;;;;18.92;4.05;;;1.70;99.90;;;;;;5069304;28;20052;-76
2021/12/20 06:18:30;;;;;;;22.13;3.97;;;1.70;99.90;;;;;;5069372;28;20044;-76
2021/12/20 06:20:56;;;;;;;16.50;3.80;;;1.70;99.90;;;;;;5069179;28;20131;-76
2021/12/20 06:23:21;;;;;;;17.40;4.25;;;1.70;99.90;;;;;;5067550;28;20048;-76
2021/12/20 06:25:47;;;;;;;;;;;1.70;99.90;;;;;;5068573;28;20051;-75
2021/12/20 06:28:13;;;;;;;17.08;2.95;;;1.70;99.90;;;;;;5051284;28;19978;-76
2021/12/20 06:30:38;;;;;;;16.48;2.75;;;1.60;99.90;;;;;;5067898;28;20445;-76
2021/12/20 06:33:04;;;;;;;15.93;2.63;;;1.60;99.90;;;;;;5064846;28;20052;-75
2021/12/20 06:35:30;;;;;;;18.73;3.45;;;1.60;99.90;;;;;;5047880;28;20068;-76
2021/12/20 06:38:01;;;;;;;21.48;4.40;;;1.60;99.90;;;;;;5046590;28;20401;-76
2021/12/20 06:40:30;;;;;;;28.23;5.43;;;1.60;99.90;;;;;;5047006;28;20843;-76
2021/12/20 06:42:56;;;;;;;25.02;5.43;;;1.50;99.90;;;;;;5046224;28;20923;-76
2021/12/20 06:45:22;;;;;;;23.15;4.10;;;1.50;99.90;;;;;;5048864;28;20477;-73
2021/12/20 06:47:48;;;;;;;18.10;3.33;;;1.50;99.90;;;;;;5049119;28;20053;-73
2021/12/20 06:50:14;;;;;;;23.65;3.47;;;1.50;99.90;;;;;;5050939;28;20048;-73
2021/12/20 06:52:39;;;;;;;25.85;4.45;;;1.50;99.90;;;;;;5060105;28;20039;-74
2021/12/20 06:55:05;;;;;;;24.30;3.90;;;1.40;99.90;;;;;;5034547;28;20183;-74
2021/12/20 06:57:31;;;;;;;19.30;4.25;;;1.40;99.90;;;;;;5071509;28;20051;-73
2021/12/20 06:59:57;;;;;;;;;;;1.40;99.90;;;;;;5071759;28;20045;-74
2021/12/20 07:02:23;;;;;;;19.05;3.90;;;1.40;99.90;;;;;;5071521;28;20302;-74
2021/12/20 07:04:48;;;;;;;;;;;1.40;99.90;;;;;;5071597;28;20150;-74
2021/12/20 07:07:14;;;;;;;20.13;4.80;;;1.40;99.90;;;;;;5070937;28;20003;-74
2021/12/20 07:09:40;;;;;;;19.90;4.57;;;1.40;99.90;;;;;;5071023;28;20044;-74
2021/12/20 07:12:06;;;;;;;22.02;4.30;;;1.30;99.90;;;;;;5054387;28;20052;-74
2021/12/20 07:14:31;;;;;;;26.30;5.32;;;1.40;99.90;;;;;;5071598;28;20395;-75
2021/12/20 07:16:57;;;;;;;24.77;5.80;;;1.30;99.90;;;;;;5071002;28;20040;-75
2021/12/20 07:19:23;;;;;;;26.70;4.55;;;1.30;99.90;;;;;;5071006;28;20513;-75
2021/12/20 07:21:49;;;;;;;19.27;5.15;;;1.30;99.90;;;;;;5070623;28;20036;-75
2021/12/20 07:24:15;;;;;;;26.77;4.85;;;1.30;99.90;;;;;;5071215;28;20414;-75
2021/12/20 07:26:41;;;;;;;20.20;4.68;;;1.30;99.90;;;;;;5070602;28;20090;-74
2021/12/20 07:29:07;;;;;;;24.52;5.43;;;1.20;99.90;;;;;;5070604;28;20056;-75
2021/12/20 07:31:33;;;;;;;24.83;4.85;;;1.20;99.90;;;;;;5070748;28;20086;-76
2021/12/20 07:33:59;;;;;;;28.00;5.47;;;1.20;99.90;;;;;;5061278;28;20045;-76
2021/12/20 07:36:25;;;;;;;25.30;5.40;;;1.20;99.90;;;;;;5050984;28;20076;-75
2021/12/20 07:38:51;;;;;;;28.05;5.07;;;1.20;99.90;;;;;;5050273;28;20084;-75
2021/12/20 07:41:22;;;;;;;34.45;5.55;;;1.20;99.90;;;;;;5050585;28;20732;-75
2021/12/20 07:43:49;;;;;;;20.27;4.75;;;1.20;99.90;;;;;;5051392;28;20175;-76
2021/12/20 07:46:16;;;;;;;26.15;4.60;;;1.20;99.90;;;;;;5050558;28;20094;-76
2021/12/20 07:48:42;;;;;;;15.82;4.93;;;1.10;99.90;;;;;;5050082;28;20376;-76
2021/12/20 07:51:07;;;;;;;23.10;5.35;;;1.10;99.90;;;;;;5050393;28;20099;-76
2021/12/20 07:53:33;;;;;;;22.73;4.63;;;1.10;99.90;;;;;;5049659;28;20045;-76
2021/12/20 07:55:59;;;;;;;27.55;5.30;;;1.10;99.90;;;;;;5050220;28;20434;-76
2021/12/20 07:58:25;;;;;;;21.05;4.50;;;1.10;99.90;;;;;;5033486;28;20055;-75
2021/12/20 08:00:51;;;;;;;27.42;5.00;;;1.10;99.90;;;;;;5049784;28;20044;-75
2021/12/20 08:03:17;;;;;;;19.85;4.63;;;1.10;99.90;;;;;;5050263;28;20111;-76
2021/12/20 08:05:43;;;;;;;23.13;4.60;;;1.10;99.90;;;;;;5050729;28;20052;-76
2021/12/20 08:08:09;;;;;;;23.75;4.93;;;1.00;99.90;;;;;;5053565;28;20091;-75
2021/12/20 08:10:35;;;;;;;22.15;4.85;;;1.10;99.90;;;;;;5052953;28;20084;-76
2021/12/20 08:13:01;;;;;;;28.98;4.72;;;1.00;99.90;;;;;;5053401;28;20090;-76
2021/12/20 08:15:27;;;;;;;22.33;5.80;;;1.10;99.90;;;;;;5053447;28;20037;-76
2021/12/20 08:17:54;;;;;;;17.85;4.28;;;1.10;99.90;;;;;;5053550;28;20468;-76
2021/12/20 08:20:21;;;;;;;24.55;4.32;;;1.10;99.90;;;;;;5053351;28;20115;-76
2021/12/20 08:22:47;;;;;;;21.05;4.65;;;1.10;99.90;;;;;;5052510;28;20063;-76
2021/12/20 08:25:15;;;;;;;25.27;5.50;;;1.10;99.90;;;;;;5053157;28;20451;-76
2021/12/20 08:27:42;;;;;;;17.65;5.80;;;1.10;99.90;;;;;;5053177;28;20048;-76
2021/12/20 08:30:08;;;;;;;25.55;5.70;;;1.10;99.90;;;;;;5052936;28;20044;-76
2021/12/20 08:32:36;;;;;;;25.42;6.15;;;1.10;99.90;;;;;;5053368;28;20040;-76
2021/12/20 08:35:03;;;;;;;30.27;6.70;;;1.10;99.90;;;;;;5072142;28;20077;-76
2021/12/20 08:37:28;;;;;;;19.75;5.30;;;1.10;99.90;;;;;;5072719;28;20063;-76
2021/12/20 08:39:54;;;;;;;19.15;5.15;;;1.10;99.90;;;;;;5091183;28;20052;-76
2021/12/20 08:42:20;;;;;;;25.55;5.07;;;1.10;99.90;;;;;;5072726;28;20137;-76
2021/12/20 08:44:46;;;;;;;19.30;5.30;;;1.20;99.90;;;;;;5090866;28;20040;-76
2021/12/20 08:47:11;;;;;;;27.55;6.40;;;1.20;99.90;;;;;;5072525;28;20091;-76
2021/12/20 08:49:37;;;;;;;22.70;5.65;;;1.20;99.90;;;;;;5072684;28;20040;-76
2021/12/20 08:52:04;;;;;;;29.23;6.50;;;1.30;99.90;;;;;;5072883;28;20205;-76
2021/12/20 08:54:29;;;;;;;24.50;6.70;;;1.30;99.90;;;;;;5073035;28;20966;-76
2021/12/20 08:56:57;;;;;;;25.30;6.38;;;1.30;99.90;;;;;;5072180;28;20131;-76
2021/12/20 08:59:24;;;;;;;21.40;5.43;;;1.40;99.90;;;;;;5090603;28;20048;-76
2021/12/20 09:01:49;;;;;;;21.60;5.13;;;1.40;99.90;;;;;;5072275;28;20498;-76
2021/12/20 09:04:16;;;;;;;23.67;5.50;;;1.40;99.90;;;;;;5055553;28;20082;-76
2021/12/20 09:06:43;;;;;;;21.58;4.47;;;1.40;99.90;;;;;;5068967;28;20434;-76
2021/12/20 09:09:11;;;;;;;21.70;4.80;;;1.40;99.90;;;;;;5068519;28;20514;-76
2021/12/20 09:11:38;;;;;;;21.15;5.13;;;1.40;99.90;;;;;;5068497;28;20053;-76
2021/12/20 09:14:04;;;;;;;25.05;7.85;;;1.40;99.90;;;;;;5067689;28;20956;-76
2021/12/20 09:16:30;;;;;;;27.73;7.65;;;1.40;99.90;;;;;;5067316;28;20407;-75
2021/12/20 09:18:56;;;;;;;24.90;6.07;;;1.50;99.90;;;;;;5068386;28;20473;-76
2021/12/20 09:21:22;;;;;;;15.63;5.10;;;1.60;99.90;;;;;;5052368;28;20051;-76
2021/12/20 09:23:48;;;;;;;21.42;4.97;;;1.60;99.90;;;;;;5069151;28;20086;-76
2021/12/20 09:26:14;;;;;;;18.88;4.82;;;1.60;99.90;;;;;;5068816;28;20048;-76
2021/12/20 09:28:40;;;;;;;21.35;4.88;;;1.60;99.90;;;;;;5068233;28;20049;-76
2021/12/20 09:31:08;;;;;;;24.17;5.45;;;1.70;99.90;;;;;;5068599;28;20043;-76
2021/12/20 09:33:33;;;;;;;21.25;5.53;;;1.70;99.90;;;;;;5061599;28;20044;-76
2021/12/20 09:35:59;;;;;;;25.77;5.55;;;1.80;99.90;;;;;;5031922;28;20048;-76
2021/12/20 09:38:25;;;;;;;23.65;5.45;;;1.80;99.90;;;;;;5031947;28;20055;-76
2021/12/20 09:41:13;;;;;;;23.60;4.97;;;1.90;99.90;;;;;;5031504;28;20094;-76
2021/12/20 09:43:51;;;;;;;26.92;6.95;;;1.90;99.90;;;;;;5048892;28;20124;-76
2021/12/20 09:46:18;;;;;;;;;;;2.00;99.90;;;;;;5049016;28;20100;-76
2021/12/20 09:48:49;;;;;;;;;;;2.10;99.90;;;;;;5048803;28;19972;-76
2021/12/20 09:51:14;;;;;;;;;;;2.20;99.90;;;;;;5032073;28;19924;-76
2021/12/20 09:53:41;;;;;;;;;;;2.20;99.90;;;;;;5031836;28;19921;-76
2021/12/20 09:56:08;;;;;;;;;;;2.30;99.90;;;;;;5082499;28;19930;-76
2021/12/20 09:58:34;;;;;;;;;;;2.40;99.90;;;;;;5082450;28;19921;-76
2021/12/20 10:01:01;;;;;;;;;;;2.50;99.90;;;;;;5082654;28;19990;-76
2021/12/20 10:03:28;;;;;;;;;;;2.50;99.90;;;;;;5048768;28;19924;-76
2021/12/20 10:05:55;;;;;;;;;;;2.70;99.90;;;;;;5034328;28;20270;-76
2021/12/20 10:08:30;;;;;;;;;;;2.80;99.90;;;;;;5084783;28;19920;-76
2021/12/20 10:10:56;;;;;;;;;;;2.90;99.90;;;;;;5051729;28;19970;-76
2021/12/20 10:13:37;;;;;;;26.23;7.28;;;2.90;99.90;;;;;;5051569;28;20370;-76
2021/12/20 10:16:12;;;;;;;32.70;8.95;;;3.00;99.90;;;;;;5067690;28;20893;-76
2021/12/20 10:18:41;;;;;;;29.92;5.65;;;3.00;99.90;;;;;;5069322;28;20052;-76
2021/12/20 10:21:07;;;;;;;27.10;6.75;;;3.10;99.90;;;;;;5049677;28;20423;-76
2021/12/20 10:23:42;;;;;;;32.17;6.35;;;3.10;99.90;;;;;;5051562;28;20403;-76
2021/12/20 10:26:13;;;;;;;23.83;4.77;;;3.10;99.90;;;;;;5054469;28;20453;-76
2021/12/20 10:28:40;;;;;;;15.70;2.78;;;3.20;99.90;;;;;;5072761;28;20405;-76
2021/12/20 10:31:10;;;;;;;18.20;3.28;;;3.20;99.90;;;;;;5073315;28;20086;-76
2021/12/20 10:33:38;;;;;;;16.45;3.40;;;3.30;99.90;;;;;;5080969;28;20048;-76
2021/12/20 10:36:06;;;;;;;14.70;2.75;;;3.30;99.90;;;;;;5075698;28;20094;-76
2021/12/20 10:38:38;;;;;;;17.23;2.95;;;3.30;99.90;;;;;;5093168;28;20048;-76
2021/12/20 10:41:04;;;;;;;12.68;1.85;;;3.30;99.90;;;;;;5093454;28;20161;-76
2021/12/20 10:43:36;;;;;;;14.57;2.25;;;3.40;99.90;;;;;;5074717;28;20513;-76
2021/12/20 10:46:19;;;;;;;14.45;2.90;;;3.40;99.90;;;;;;5075567;28;20063;-76
2021/12/20 10:48:50;;;;;;;20.30;4.55;;;3.90;99.90;;;;;;5073705;28;20437;-76
2021/12/20 10:51:20;;;;;;;18.33;4.43;;;4.30;99.90;;;;;;5074253;28;20432;-76
2021/12/20 10:53:50;;;;;;;20.42;4.82;;;4.40;99.90;;;;;;5073521;28;20439;-77
2021/12/20 10:56:19;;;;;;;21.00;5.30;;;4.60;99.90;;;;;;5091704;28;20405;-76
2021/12/20 10:58:44;;;;;;;13.40;3.13;;;4.70;99.90;;;;;;5074777;28;20297;-76
2021/12/20 11:04:06;;;;;;;15.65;4.00;;;5.00;99.90;;;;;;5073546;28;20410;-77
2021/12/20 11:06:43;;;;;;;12.70;3.20;;;5.40;99.90;;;;;;5091211;28;20410;-76
2021/12/20 11:09:13;;;;;;;14.77;3.60;;;5.70;99.90;;;;;;5073137;28;20405;-76
2021/12/20 11:11:43;;;;;;;13.00;2.92;;;6.00;99.90;;;;;;5073283;28;20402;-77
2021/12/20 11:14:09;;;;;;;13.83;3.00;;;6.40;99.90;;;;;;5091396;28;20489;-77
2021/12/20 11:16:39;;;;;;;9.63;2.08;;;6.90;99.90;;;;;;5073106;28;21341;-77
2021/12/20 11:19:26;;;;;;;9.73;1.95;;;7.40;99.90;;;;;;5073593;28;20489;-77
2021/12/20 11:21:51;;;;;;;5.55;1.20;;;8.00;99.90;;;;;;5073006;28;20460;-77
2021/12/20 11:24:30;;;;;;;5.80;1.17;;;8.20;99.90;;;;;;5072889;28;20799;-77
2021/12/20 11:26:57;;;;;;;6.03;1.25;;;8.40;99.90;;;;;;5091037;28;20540;-77
2021/12/20 11:29:23;;;;;;;6.80;1.17;;;8.60;99.90;;;;;;5091066;28;20485;-77
2021/12/20 11:31:51;;;;;;;5.45;0.80;;;8.90;99.90;;;;;;5090701;28;20486;-77
2021/12/20 11:34:16;;;;;;;6.85;1.48;;;8.90;99.90;;;;;;5059586;28;20478;-77
2021/12/20 11:36:42;;;;;;;7.80;1.50;;;8.70;99.90;;;;;;5052318;28;20479;-77
2021/12/20 11:39:09;;;;;;;8.45;1.80;;;8.40;99.90;;;;;;5070597;28;20852;-77
2021/12/20 11:41:35;;;;;;;13.17;2.70;;;8.10;99.90;;;;;;5036548;28;20411;-77
2021/12/20 11:44:03;;;;;;;9.30;1.80;;;7.90;99.90;;;;;;5070365;28;20538;-76
2021/12/20 11:46:54;;;;;;;8.45;1.92;;;7.60;99.90;;;;;;5052680;28;20438;-77
2021/12/20 11:49:21;;;;;;;13.20;2.92;;;7.40;99.90;;;;;;5035369;28;20416;-77
2021/12/20 11:52:07;;;;;;;;;;;7.10;99.90;;;;;;5070694;28;20078;-77
2021/12/20 11:54:36;;;;;;;;;;;7.00;99.90;;;;;;5046691;28;20006;-77
2021/12/20 11:57:02;;;;;;;;;;;6.90;99.90;;;;;;5071299;28;19973;-76
2021/12/20 11:59:47;;;;;;;;;;;6.80;99.90;;;;;;5071106;28;19927;-77
2021/12/20 12:02:24;;;;;;;;;;;6.70;99.90;;;;;;5087561;28;19943;-77
2021/12/20 12:05:08;;;;;;;;;;;6.70;99.90;;;;;;5054456;28;20352;-77
2021/12/20 12:07:36;;;;;;;16.05;2.80;;;6.70;99.90;;;;;;5053241;28;19927;-77
2021/12/20 12:10:10;;;;;;;8.63;2.05;;;6.70;99.90;;;;;;5071631;28;20045;-77
2021/12/20 12:12:43;;;;;;;9.70;2.05;;;6.90;99.90;;;;;;5071165;28;20526;-77
2021/12/20 12:15:29;;;;;;;10.00;1.38;;;7.40;99.90;;;;;;5071188;28;20083;-77
2021/12/20 12:17:57;;;;;;;10.00;2.00;;;7.60;99.90;;;;;;5036574;28;20036;-77
2021/12/20 12:20:39;;;;;;;7.43;1.58;;;7.70;99.90;;;;;;5053395;28;20127;-77
2021/12/20 12:23:14;;;;;;;9.32;1.95;;;7.70;99.90;;;;;;5053237;28;20044;-77
2021/12/20 12:25:49;;;;;;;8.10;1.75;;;7.80;99.90;;;;;;5036332;28;20081;-77
2021/12/20 12:28:16;;;;;;;8.75;2.25;;;8.20;99.90;;;;;;5051875;28;20432;-77
2021/12/20 12:30:54;;;;;;;9.18;1.90;;;8.30;99.90;;;;;;5071017;28;20090;-77
2021/12/20 12:33:20;;;;;;;12.27;2.00;;;8.10;99.90;;;;;;5076262;28;20072;-77
2021/12/20 12:35:51;;;;;;;9.52;2.25;;;8.00;99.90;;;;;;5073029;28;20531;-77
2021/12/20 12:38:21;;;;;;;10.85;2.20;;;8.00;99.90;;;;;;5056608;28;20095;-77
2021/12/20 12:41:07;;;;;;;10.38;1.38;;;7.90;99.90;;;;;;5072767;28;20494;-77
2021/12/20 12:43:52;;;;;;;8.40;1.67;;;7.70;99.90;;;;;;5073036;28;20055;-77
2021/12/20 12:46:36;;;;;;;9.93;1.75;;;7.50;99.90;;;;;;5072066;28;20055;-77
2021/12/20 12:49:20;;;;;;;7.20;1.73;;;7.60;99.90;;;;;;5090625;28;20048;-77
2021/12/20 12:51:50;;;;;;;9.93;2.40;;;7.80;99.90;;;;;;5056462;28;20444;-77
2021/12/20 12:54:41;;;;;;;16.00;2.95;;;7.90;99.90;;;;;;5056302;28;20106;-77
2021/12/20 12:57:09;;;;;;;13.60;2.47;;;7.70;99.90;;;;;;5054342;28;20048;-77
2021/12/20 12:59:59;;;;;;;8.10;1.70;;;7.70;99.90;;;;;;5072646;28;20040;-77
2021/12/20 13:02:27;;;;;;;8.27;2.08;;;7.80;99.90;;;;;;5090718;28;20058;-77
2021/12/20 13:04:57;;;;;;;11.63;3.10;;;8.00;99.90;;;;;;5072434;28;20462;-77
2021/12/20 13:07:29;;;;;;;10.23;2.67;;;8.10;99.90;;;;;;5090305;28;20052;-77
2021/12/20 13:09:57;;;;;;;10.52;2.08;;;8.20;99.90;;;;;;5090393;28;20052;-77
2021/12/20 13:15:11;;;;;;;8.90;2.55;;;8.10;99.90;;;;;;5090034;28;20050;-77
2021/12/20 13:17:39;;;;;;;8.98;2.55;;;7.90;99.90;;;;;;5072209;28;20439;-77
2021/12/20 13:20:37;;;;;;;10.23;2.95;;;7.90;99.90;;;;;;5072144;28;20051;-77
2021/12/20 13:23:10;;;;;;;15.18;4.05;;;7.80;99.90;;;;;;5090023;28;20093;-77
2021/12/20 13:25:37;;;;;;;11.45;1.67;;;8.00;99.90;;;;;;5072134;28;20044;-77
2021/12/20 13:28:05;;;;;;;6.78;1.38;;;8.10;99.90;;;;;;5089743;28;20105;-77